Time;durP1;ratioP1;P1;durP2;ratioP2;P2;SDS_P1;SDS_P2;PMS_P1;PMS_P2;Temp;Humidity;BMP_temperature;BMP_pressure;BME280_temperature;BME280_humidity;BME280_pressure;Samples;Min_cycle;Max_cycle;Signal;HPM_P1;HPM_P2
2022/03/01 00:01:54;;;;;;;3.83;2.30;;;;;;;0.12;53.54;100412.06;5072309;28;20063;-63
2022/03/01 00:04:39;;;;;;;3.40;1.98;;;;;;;-0.19;53.76;100417.16;5072426;28;20059;-63
2022/03/01 00:07:25;;;;;;;5.63;2.20;;;;;;;-0.32;54.19;100412.00;5072158;28;20055;-62
2022/03/01 00:10:10;;;;;;;4.72;2.13;;;;;;;-0.17;55.04;100411.19;5072388;28;20403;-64
2022/03/01 00:12:56;;;;;;;3.80;2.35;;;;;;;-0.38;54.16;100412.00;5072597;28;20395;-64
2022/03/01 00:15:42;;;;;;;5.60;2.30;;;;;;;-0.17;54.12;100412.88;5072404;28;20056;-64
2022/03/01 00:18:28;;;;;;;4.68;2.28;;;;;;;0.04;53.78;100406.03;5071270;28;20510;-64
2022/03/01 00:21:14;;;;;;;4.97;2.20;;;;;;;0.08;53.30;100407.78;5062859;28;20060;-64
2022/03/01 00:23:59;;;;;;;6.07;3.05;;;;;;;0.18;53.79;100406.91;5072354;28;20068;-64
2022/03/01 00:26:45;;;;;;;3.90;2.17;;;;;;;0.05;53.51;100405.22;5056965;28;20048;-63
2022/03/01 00:29:31;;;;;;;5.22;2.33;;;;;;;-0.08;54.19;100406.91;5071840;28;20115;-64
2022/03/01 00:32:16;;;;;;;3.58;2.20;;;;;;;-0.07;54.32;100393.16;5057042;28;20076;-64
2022/03/01 00:35:02;;;;;;;4.15;2.40;;;;;;;-0.10;54.58;100396.59;5047168;28;20523;-63
2022/03/01 00:37:48;;;;;;;4.30;2.22;;;;;;;-0.31;55.05;100400.00;5058256;28;20060;-64
2022/03/01 00:40:33;;;;;;;5.35;2.97;;;;;;;-0.32;54.90;100386.25;5037138;28;20064;-63
2022/03/01 00:43:21;;;;;;;5.45;2.63;;;;;;;-0.44;55.32;100384.47;5055632;28;20052;-64
2022/03/01 00:46:06;;;;;;;8.45;3.20;;;;;;;-0.54;56.04;100391.31;5032442;28;20056;-64
2022/03/01 00:48:53;;;;;;;5.38;3.10;;;;;;;-0.35;55.71;100387.94;5046485;28;20064;-64
2022/03/01 00:51:39;;;;;;;6.65;3.08;;;;;;;-0.58;56.21;100386.16;5040604;28;20040;-64
2022/03/01 00:54:24;;;;;;;6.05;3.28;;;;;;;-0.76;56.79;100386.09;5055722;28;20052;-64
2022/03/01 00:57:11;;;;;;;8.52;4.00;;;;;;;-1.04;58.05;100385.97;5055441;28;20072;-62
2022/03/01 00:59:57;;;;;;;6.07;3.88;;;;;;;-0.98;57.99;100379.13;5040639;28;20056;-63
2022/03/01 01:02:43;;;;;;;5.80;2.72;;;;;;;-0.98;57.88;100386.84;5055402;28;20522;-64
2022/03/01 01:05:29;;;;;;;6.40;3.00;;;;;;;-1.02;57.88;100386.84;5055202;28;20550;-64
2022/03/01 01:08:15;;;;;;;6.25;3.28;;;;;;;-0.94;57.93;100391.16;5054598;28;20056;-64
2022/03/01 01:11:01;;;;;;;12.40;5.43;;;;;;;-0.95;57.79;100390.31;5055262;28;20504;-64
2022/03/01 01:13:47;;;;;;;8.32;4.53;;;;;;;-1.31;58.59;100386.66;5055167;28;20056;-64
2022/03/01 01:16:32;;;;;;;9.70;4.30;;;;;;;-1.29;58.74;100384.97;5054202;28;20114;-64
2022/03/01 01:19:18;;;;;;;8.00;3.50;;;;;;;-1.38;59.12;100389.22;5067760;28;20079;-64
2022/03/01 01:25:15;;;;;;;8.98;3.78;;;;;;;-0.89;57.34;100385.19;5075154;28;20067;-63
2022/03/01 01:28:01;;;;;;;7.35;3.90;;;;;;;-0.71;56.69;100383.53;5075302;28;20404;-63
2022/03/01 01:30:47;;;;;;;8.32;4.13;;;;;;;-0.86;56.55;100389.47;5074904;28;20060;-63
2022/03/01 01:33:33;;;;;;;7.72;3.92;;;;;;;-1.02;57.29;100394.56;5074717;28;20056;-63
2022/03/01 01:36:19;;;;;;;9.82;3.70;;;;;;;-0.78;56.78;100394.66;5074776;28;20055;-65
2022/03/01 01:39:05;;;;;;;10.38;4.03;;;;;;;-0.73;56.17;100382.66;5074766;28;20407;-64
2022/03/01 01:41:51;;;;;;;7.15;3.33;;;;;;;-0.75;56.33;100392.09;5065750;28;20075;-65
2022/03/01 01:44:37;;;;;;;6.50;3.53;;;;;;;-0.72;56.05;100391.25;5074803;28;20055;-64
2022/03/01 01:47:23;;;;;;;8.07;3.67;;;;;;;-0.77;56.13;100397.22;5081335;28;20151;-64
2022/03/01 01:50:09;;;;;;;8.90;4.28;;;;;;;-0.84;56.36;100387.78;5087133;28;20439;-64
2022/03/01 01:52:56;;;;;;;9.35;3.83;;;;;;;-1.04;57.20;100387.66;5083928;28;20060;-65
2022/03/01 01:55:42;;;;;;;9.50;3.85;;;;;;;-1.14;57.43;100387.63;5075233;28;20396;-64
2022/03/01 01:58:28;;;;;;;10.73;4.80;;;;;;;-1.03;57.11;100377.38;5075141;28;20051;-65
2022/03/01 02:01:14;;;;;;;7.00;3.13;;;;;;;-1.01;57.03;100378.25;5074315;28;20059;-64
2022/03/01 02:04:00;;;;;;;7.30;3.78;;;;;;;-1.17;57.31;100385.03;5059560;28;20055;-65
2022/03/01 02:06:53;;;;;;;9.35;4.45;;;;;;;-1.25;58.12;100377.28;5074322;28;20051;-64
2022/03/01 02:09:40;;;;;;;6.82;4.13;;;;;;;-1.26;57.75;100367.00;5059339;28;20047;-65
2022/03/01 02:12:26;;;;;;;6.32;3.22;;;;;;;-1.10;57.59;100379.94;5071480;28;20068;-65
2022/03/01 02:15:12;;;;;;;10.50;4.30;;;;;;;-1.28;57.82;100373.81;5039303;28;20072;-64
2022/03/01 02:17:58;;;;;;;8.48;3.58;;;;;;;-1.02;57.05;100368.84;5057623;28;20059;-65
2022/03/01 02:20:44;;;;;;;8.38;3.70;;;;;;;-1.16;57.04;100368.75;5074392;28;20427;-63
2022/03/01 02:23:29;;;;;;;8.48;3.63;;;;;;;-1.33;57.41;100362.66;5074072;28;20079;-64
2022/03/01 02:26:17;;;;;;;5.53;3.42;;;;;;;-1.04;57.00;100364.50;5074263;28;20059;-64
2022/03/01 02:29:02;;;;;;;11.57;3.63;;;;;;;-1.01;56.69;100367.09;5064374;28;20059;-64
2022/03/01 02:31:49;;;;;;;10.02;3.85;;;;;;;-1.00;56.62;100366.25;5072735;28;20404;-63
2022/03/01 02:34:36;;;;;;;7.00;3.50;;;;;;;-0.82;56.27;100359.47;5073816;28;20051;-64
2022/03/01 02:37:22;;;;;;;6.60;3.22;;;;;;;-0.86;55.73;100358.59;5073377;28;20487;-64
2022/03/01 02:40:09;;;;;;;6.30;3.40;;;;;;;-1.22;56.74;100353.28;5059436;28;20068;-64
2022/03/01 02:42:54;;;;;;;8.50;3.75;;;;;;;-1.48;57.76;100364.28;5073538;28;20052;-64
2022/03/01 02:45:40;;;;;;;8.77;4.05;;;;;;;-1.60;58.52;100365.06;5073772;28;20063;-63
2022/03/01 02:48:26;;;;;;;6.25;3.63;;;;;;;-1.50;58.41;100369.41;5073454;28;20056;-65
2022/03/01 02:51:12;;;;;;;6.43;3.65;;;;;;;-1.31;57.63;100366.09;5073246;28;20072;-62
2022/03/01 02:53:57;;;;;;;7.40;3.38;;;;;;;-1.32;57.44;100361.81;5073383;28;20056;-64
2022/03/01 02:56:43;;;;;;;7.38;3.60;;;;;;;-1.28;57.58;100363.53;5073569;28;20051;-63
2022/03/01 02:59:30;;;;;;;7.43;4.13;;;;;;;-1.33;57.96;100367.78;5073308;28;20064;-65
2022/03/01 03:02:16;;;;;;;7.68;4.13;;;;;;;-1.54;58.87;100371.94;5072192;28;20055;-66
2022/03/01 03:05:02;;;;;;;8.77;3.33;;;;;;;-1.73;59.00;100371.81;5063246;28;20063;-65
2022/03/01 03:07:47;;;;;;;6.53;3.42;;;;;;;-1.75;59.35;100361.50;5073001;28;20055;-65
2022/03/01 03:10:34;;;;;;;6.85;3.70;;;;;;;-1.73;59.61;100364.94;5073251;28;20052;-65
2022/03/01 03:13:20;;;;;;;8.10;3.53;;;;;;;-1.57;58.92;100365.09;5057884;28;20071;-65
2022/03/01 03:16:07;;;;;;;6.40;3.63;;;;;;;-1.41;58.26;100358.34;5065504;28;20498;-65
2022/03/01 03:18:53;;;;;;;6.95;3.20;;;;;;;-1.30;57.57;100360.97;5073054;28;20053;-65
2022/03/01 03:21:38;;;;;;;5.70;3.72;;;;;;;-1.29;57.58;100360.09;5073102;28;20063;-65
2022/03/01 03:24:24;;;;;;;6.78;3.80;;;;;;;-1.58;58.46;100368.47;5057916;28;20060;-65
2022/03/01 03:27:09;;;;;;;8.50;4.03;;;;;;;-1.65;59.03;100366.75;5072431;28;20064;-63
2022/03/01 03:29:55;;;;;;;9.15;4.45;;;;;;;-1.68;59.24;100357.28;5072810;28;20459;-64
2022/03/01 03:32:40;;;;;;;8.63;3.50;;;;;;;-1.81;59.65;100360.63;5072687;28;20051;-65
2022/03/01 03:35:26;;;;;;;9.52;3.55;;;;;;;-2.11;60.25;100353.53;5072603;28;20399;-65
2022/03/01 03:38:11;;;;;;;8.60;3.28;;;;;;;-1.88;59.57;100355.41;5063210;28;20067;-65
2022/03/01 03:40:57;;;;;;;8.13;3.53;;;;;;;-1.77;59.33;100355.50;5072666;28;20067;-64
2022/03/01 03:43:43;;;;;;;7.95;3.30;;;;;;;-1.75;58.98;100356.34;5072561;28;20498;-63
2022/03/01 03:46:29;;;;;;;7.32;3.42;;;;;;;-1.60;58.57;100352.22;5072833;28;20059;-65
2022/03/01 03:49:15;;;;;;;8.63;3.45;;;;;;;-1.46;57.97;100354.88;5072148;28;20733;-64
2022/03/01 03:52:00;;;;;;;5.70;3.08;;;;;;;-1.64;58.60;100347.88;5057343;28;20056;-65
2022/03/01 03:54:46;;;;;;;6.65;3.42;;;;;;;-1.85;59.46;100341.75;5072375;28;20055;-65
2022/03/01 03:57:33;;;;;;;6.65;3.53;;;;;;;-1.77;59.05;100346.94;5072573;28;20496;-65
2022/03/01 04:00:19;;;;;;;8.43;4.05;;;;;;;-1.69;58.80;100353.00;5069416;28;20494;-63
2022/03/01 04:03:04;;;;;;;8.27;3.83;;;;;;;-1.86;59.21;100355.44;5056563;28;20060;-65
2022/03/01 04:05:51;;;;;;;6.43;3.38;;;;;;;-1.84;59.33;100351.16;5061808;28;20400;-65
2022/03/01 04:08:36;;;;;;;6.38;3.53;;;;;;;-1.66;58.59;100344.44;5061887;28;20044;-65
2022/03/01 04:11:24;;;;;;;9.30;4.20;;;;;;;-1.63;58.79;100347.88;5067714;28;20051;-63
2022/03/01 04:14:10;;;;;;;7.95;3.63;;;;;;;-1.61;58.36;100338.50;5051077;28;20072;-64
2022/03/01 04:16:56;;;;;;;5.28;2.80;;;;;;;-1.26;71.25;100331.81;5060096;28;20072;-64
2022/03/01 04:19:42;;;;;;;5.20;3.28;;;;;;;-1.11;70.25;100330.19;5046934;28;20546;-63
2022/03/01 04:22:29;;;;;;;9.63;3.63;;;;;;;-1.33;62.60;100334.34;5068649;28;20048;-65
2022/03/01 04:25:15;;;;;;;6.18;3.30;;;;;;;-1.64;62.54;100330.75;5075747;28;20055;-64
2022/03/01 04:28:01;;;;;;;7.90;3.88;;;;;;;-1.95;62.31;100330.53;5075280;28;20055;-65
2022/03/01 04:30:47;;;;;;;7.43;4.07;;;;;;;-2.41;63.45;100323.25;5074946;28;20051;-64
2022/03/01 04:33:32;;;;;;;8.00;4.28;;;;;;;-2.44;63.71;100316.41;5070192;28;20123;-64
2022/03/01 04:36:18;;;;;;;6.80;3.80;;;;;;;-2.05;62.77;100327.03;5066835;28;20071;-65
2022/03/01 04:39:04;;;;;;;7.53;3.53;;;;;;;-1.96;62.09;100330.50;5075875;28;20514;-65
2022/03/01 04:41:51;;;;;;;7.97;3.83;;;;;;;-1.99;61.34;100336.47;5077877;28;20055;-65
2022/03/01 04:44:37;;;;;;;8.18;3.72;;;;;;;-1.92;61.34;100340.81;5075920;28;20063;-64
2022/03/01 04:47:22;;;;;;;7.85;4.22;;;;;;;-1.92;61.18;100340.81;5076109;28;20071;-64
2022/03/01 04:50:09;;;;;;;7.45;4.05;;;;;;;-1.98;61.39;100336.50;5066519;28;20060;-64
2022/03/01 04:52:55;;;;;;;9.55;4.90;;;;;;;-1.95;60.92;100338.22;5071758;28;20076;-64
2022/03/01 04:55:41;;;;;;;8.73;3.75;;;;;;;-1.92;61.05;100333.13;5075803;28;20075;-65
2022/03/01 04:58:26;;;;;;;10.27;4.28;;;;;;;-1.93;60.94;100331.41;5075616;28;20055;-65
2022/03/01 05:01:12;;;;;;;7.90;4.03;;;;;;;-2.02;60.90;100328.75;5075326;28;20060;-64
2022/03/01 05:03:57;;;;;;;7.25;4.28;;;;;;;-2.00;60.80;100327.91;5066319;28;20052;-64
2022/03/01 05:06:43;;;;;;;7.47;4.10;;;;;;;-2.22;61.31;100321.75;5075716;28;20507;-65
2022/03/01 05:09:29;;;;;;;13.70;4.35;;;;;;;-2.06;60.88;100324.44;5075815;28;20059;-64
2022/03/01 05:12:14;;;;;;;7.45;3.58;;;;;;;-2.36;61.67;100321.59;5075555;28;20094;-64
2022/03/01 05:15:00;;;;;;;9.63;4.47;;;;;;;-2.61;62.97;100321.34;5070077;28;20138;-64
2022/03/01 05:17:47;;;;;;;8.15;4.25;;;;;;;-2.23;61.82;100327.72;5058656;28;20042;-63
2022/03/01 05:20:32;;;;;;;6.95;4.05;;;;;;;-2.28;61.54;100324.22;5068427;28;20075;-63
2022/03/01 05:23:18;;;;;;;11.15;4.38;;;;;;;-2.06;61.27;100333.00;5060572;28;20055;-63
2022/03/01 05:26:04;;;;;;;10.02;4.47;;;;;;;-2.08;61.24;100333.81;5074984;28;20075;-64
2022/03/01 05:28:50;;;;;;;7.53;4.30;;;;;;;-2.01;60.79;100335.63;5073497;28;20546;-63
2022/03/01 05:31:36;;;;;;;7.25;4.25;;;;;;;-2.14;61.28;100335.50;5063711;28;20059;-64
2022/03/01 05:34:21;;;;;;;9.55;3.95;;;;;;;-2.07;61.01;100340.72;5055330;28;20048;-61
2022/03/01 05:37:07;;;;;;;8.27;4.18;;;;;;;-1.99;60.66;100333.91;5054948;28;20068;-63
2022/03/01 05:39:52;;;;;;;9.18;4.35;;;;;;;-1.87;60.10;100339.16;5054367;28;20072;-66
2022/03/01 05:42:38;;;;;;;9.68;4.97;;;;;;;-1.86;59.97;100335.72;5054136;28;20064;-65
2022/03/01 05:45:25;;;;;;;10.52;4.72;;;;;;;-1.73;59.91;100334.09;5058232;28;20044;-67
2022/03/01 05:48:11;;;;;;;27.83;14.18;;;;;;;-1.33;78.42;100335.22;5054408;28;20075;-66
2022/03/01 05:50:58;;;;;;;22.70;10.13;;;;;;;-0.96;79.79;100344.00;5054884;28;20053;-65
2022/03/01 05:53:44;;;;;;;18.23;8.48;;;;;;;-1.07;72.97;100341.34;5061200;28;20373;-64
2022/03/01 05:56:30;;;;;;;15.70;6.88;;;;;;;-1.20;66.63;100345.56;5069617;28;20052;-70
2022/03/01 05:59:16;;;;;;;12.95;7.35;;;;;;;-1.31;66.84;100345.53;5064907;28;20412;-66
2022/03/01 06:02:02;;;;;;;17.38;7.25;;;;;;;-1.41;68.16;100353.19;5057794;28;20060;-62
2022/03/01 06:04:48;;;;;;;19.85;9.50;;;;;;;-0.76;79.71;100362.06;5066722;28;20047;-65
2022/03/01 06:07:34;;;;;;;13.95;7.13;;;;;;;-1.49;75.68;100368.56;5074259;28;20403;-64
2022/03/01 06:10:20;;;;;;;10.70;5.95;;;;;;;-2.50;73.00;100354.84;5074419;28;20051;-63
2022/03/01 06:13:05;;;;;;;15.25;5.90;;;;;;;-2.87;71.47;100361.28;5073095;28;20059;-64
2022/03/01 06:15:51;;;;;;;11.63;6.38;;;;;;;-1.61;72.04;100355.63;5059438;28;20059;-63
2022/03/01 06:18:37;;;;;;;8.00;5.28;;;;;;;-1.71;66.79;100364.97;5074022;28;20075;-64
2022/03/01 06:21:22;;;;;;;12.88;6.45;;;;;;;-1.48;69.23;100361.69;5064624;28;20150;-65
2022/03/01 06:24:08;;;;;;;10.52;5.60;;;;;;;-0.70;67.02;100361.25;5074062;28;20185;-65
2022/03/01 06:26:54;;;;;;;13.77;6.18;;;;;;;-0.16;64.36;100358.78;5073690;28;20099;-65
2022/03/01 06:29:41;;;;;;;17.63;5.78;;;;;;;-0.22;61.89;100361.34;5040422;28;20410;-64
2022/03/01 06:32:27;;;;;;;11.50;5.38;;;;;;;-0.08;61.39;100363.94;5044594;28;20080;-64
2022/03/01 06:35:12;;;;;;;12.38;5.22;;;;;;;0.11;60.82;100356.22;5053355;28;20056;-63
2022/03/01 06:37:58;;;;;;;11.02;5.07;;;;;;;0.17;60.88;100363.09;5053976;28;20380;-63
2022/03/01 06:40:44;;;;;;;11.70;5.88;;;;;;;-0.20;60.16;100362.22;5052430;28;20052;-63
2022/03/01 06:43:30;;;;;;;10.90;5.40;;;;;;;0.08;61.00;100353.66;5058576;28;20059;-64
2022/03/01 06:46:16;;;;;;;11.30;5.43;;;;;;;0.56;57.44;100351.03;5053118;28;20055;-63
2022/03/01 06:49:01;;;;;;;10.32;4.50;;;;;;;0.81;59.29;100363.88;5054438;28;20427;-61
2022/03/01 06:51:47;;;;;;;14.10;5.97;;;;;;;0.76;57.53;100360.44;5053349;28;20407;-63
2022/03/01 06:54:33;;;;;;;10.35;5.20;;;;;;;0.95;56.37;100361.25;5053340;28;20067;-62
2022/03/01 06:57:19;;;;;;;11.00;5.38;;;;;;;0.85;55.76;100368.16;5038045;28;20084;-62
2022/03/01 07:00:05;;;;;;;8.77;5.00;;;;;;;1.17;56.38;100365.47;5053234;28;20072;-62
2022/03/01 07:02:51;;;;;;;12.50;5.82;;;;;;;1.88;53.96;100359.06;5043986;28;20506;-62
2022/03/01 07:05:38;;;;;;;8.98;4.85;;;;;;;2.26;53.82;100363.94;5053312;28;20138;-62
2022/03/01 07:08:24;;;;;;;10.23;5.50;;;;;;;2.21;52.97;100359.69;5053371;28;20060;-62
2022/03/01 07:11:10;;;;;;;10.38;4.93;;;;;;;2.45;52.20;100356.88;5052996;28;20064;-63
2022/03/01 07:13:55;;;;;;;17.15;4.78;;;;;;;3.25;74.96;100349.09;5053016;28;20051;-65
2022/03/01 07:16:41;;;;;;;21.13;4.70;;;;;;;5.05;77.21;100356.56;5052008;28;20066;-64
2022/03/01 07:19:27;;;;;;;12.85;4.78;;;;;;;5.21;72.68;100349.28;5036868;28;20064;-66
2022/03/01 07:22:12;;;;;;;18.67;5.75;;;;;;;5.14;77.64;100347.72;5052852;28;20060;-67
2022/03/01 07:24:58;;;;;;;19.67;6.38;;;;;;;5.46;82.99;100347.91;5057735;28;20513;-64
2022/03/01 07:27:46;;;;;;;13.32;6.70;;;;;;;5.33;49.35;100350.78;5052622;28;20052;-61
2022/03/01 07:30:31;;;;;;;13.77;6.28;;;;;;;6.18;57.45;100349.75;5053044;28;20060;-65
2022/03/01 07:33:17;;;;;;;12.23;6.25;;;;;;;6.50;52.13;100349.81;5052456;28;20071;-63
2022/03/01 07:36:03;;;;;;;12.73;6.40;;;;;;;6.49;49.25;100343.78;5052773;28;20056;-62
2022/03/01 07:38:48;;;;;;;12.30;5.68;;;;;;;6.71;52.54;100342.34;5038022;28;20060;-63
2022/03/01 07:41:34;;;;;;;15.23;6.07;;;;;;;7.24;53.66;100322.59;5053023;28;20052;-63
2022/03/01 07:44:21;;;;;;;12.27;6.50;;;;;;;8.16;48.99;100332.75;5030246;28;20060;-62
2022/03/01 07:47:07;;;;;;;12.57;6.28;;;;;;;6.89;41.52;100339.22;5052934;28;20123;-64
2022/03/01 07:49:53;;;;;;;10.80;6.18;;;;;;;6.74;43.87;100337.88;5037628;28;20052;-63
2022/03/01 07:52:39;;;;;;;13.32;6.35;;;;;;;6.59;43.07;100340.91;5052008;28;20067;-63
2022/03/01 07:55:25;;;;;;;12.45;6.43;;;;;;;6.62;43.48;100341.69;5052973;28;20064;-63
2022/03/01 07:58:12;;;;;;;11.70;6.97;;;;;;;7.33;41.29;100343.16;5051908;28;20048;-70
2022/03/01 08:00:58;;;;;;;12.32;6.72;;;;;;;7.42;39.41;100341.19;5083680;28;20084;-71
2022/03/01 08:03:45;;;;;;;14.57;7.45;;;;;;;6.28;41.63;100350.38;5072083;28;20055;-72
2022/03/01 08:06:31;;;;;;;13.57;7.38;;;;;;;6.62;40.49;100340.84;5049144;28;20404;-67
2022/03/01 08:09:17;;;;;;;13.95;7.22;;;;;;;7.15;40.50;100340.22;5078986;28;20511;-68
2022/03/01 08:12:05;;;;;;;13.40;6.93;;;;;;;6.85;40.29;100336.75;5080210;28;20400;-67
2022/03/01 08:14:50;;;;;;;12.68;7.03;;;;;;;6.46;41.78;100332.56;5064529;28;20052;-69
2022/03/01 08:17:36;;;;;;;12.75;6.82;;;;;;;6.42;41.49;100331.78;5053540;28;20498;-68
2022/03/01 08:20:25;;;;;;;12.00;6.88;;;;;;;6.04;42.67;100331.84;5043264;28;20056;-66
2022/03/01 08:23:11;;;;;;;15.45;8.02;;;;;;;5.14;43.61;100319.16;5070815;28;20415;-66
2022/03/01 08:25:57;;;;;;;15.18;8.52;;;;;;;5.58;43.37;100320.78;5060103;28;20047;-69
2022/03/01 08:28:45;;;;;;;16.55;9.30;;;;;;;6.09;44.63;100323.97;5054191;28;20076;-68
2022/03/01 08:31:31;;;;;;;13.10;7.88;;;;;;;6.18;41.76;100322.88;5063108;28;20060;-70
2022/03/01 08:34:17;;;;;;;17.42;8.35;;;;;;;5.67;44.74;100316.25;5066141;28;20055;-71
2022/03/01 08:37:03;;;;;;;14.82;7.85;;;;;;;5.87;42.35;100324.44;5060174;28;20060;-67
2022/03/01 08:39:49;;;;;;;13.38;7.78;;;;;;;7.14;42.26;100315.06;5065605;28;20056;-66
2022/03/01 08:42:35;;;;;;;14.18;7.95;;;;;;;6.11;42.78;100314.34;5058207;28;20064;-60
2022/03/01 08:45:21;;;;;;;16.83;8.05;;;;;;;5.93;42.65;100319.09;5051211;28;20060;-60
2022/03/01 08:48:07;;;;;;;14.65;8.13;;;;;;;6.60;41.06;100316.56;5062787;28;20529;-62
2022/03/01 08:50:53;;;;;;;14.60;7.85;;;;;;;6.30;42.23;100313.91;5055863;28;20052;-66
2022/03/01 08:53:39;;;;;;;16.35;8.18;;;;;;;7.58;39.94;100300.69;5061097;28;20055;-63
2022/03/01 08:56:25;;;;;;;18.60;7.90;;;;;;;7.59;39.42;100299.78;5064372;28;20068;-64
2022/03/01 08:59:11;;;;;;;15.20;7.90;;;;;;;8.22;40.05;100296.03;5054547;28;20503;-64
2022/03/01 09:01:58;;;;;;;16.55;8.23;;;;;;;7.37;40.02;100297.00;5066074;28;20051;-65
2022/03/01 09:04:44;;;;;;;17.92;7.88;;;;;;;8.32;38.51;100293.09;5060371;28;20051;-64
2022/03/01 09:07:30;;;;;;;12.75;7.50;;;;;;;8.70;36.44;100292.69;5062740;28;20155;-67
2022/03/01 09:10:21;;;;;;;14.57;8.15;;;;;;;7.76;38.21;100293.19;5071638;28;20055;-67
2022/03/01 09:13:07;;;;;;;12.05;7.97;;;;;;;7.60;38.14;100282.41;5063124;28;20043;-64
2022/03/01 09:15:53;;;;;;;15.57;7.85;;;;;;;8.11;37.96;100282.50;5060907;28;20349;-65
2022/03/01 09:18:39;;;;;;;12.75;6.88;;;;;;;8.63;37.17;100281.59;5057247;28;20396;-64
2022/03/01 09:21:25;;;;;;;15.23;7.38;;;;;;;9.12;35.04;100276.28;5054749;28;20502;-65
2022/03/01 09:24:11;;;;;;;12.63;6.82;;;;;;;7.18;38.68;100268.06;5064689;28;20494;-59
2022/03/01 09:27:01;;;;;;;14.02;7.18;;;;;;;5.98;39.58;100280.81;5065724;28;20048;-61
2022/03/01 09:29:47;;;;;;;14.10;7.00;;;;;;;7.12;38.26;100269.94;5060119;28;20060;-61
2022/03/01 09:32:33;;;;;;;14.32;6.93;;;;;;;7.70;37.97;100262.94;5075076;28;20052;-62
2022/03/01 09:35:19;;;;;;;11.48;6.55;;;;;;;8.48;36.89;100262.94;5071687;28;20402;-62
2022/03/01 09:38:05;;;;;;;11.20;7.03;;;;;;;8.49;35.74;100267.22;5074149;28;20056;-62
2022/03/01 09:40:51;;;;;;;10.40;6.90;;;;;;;8.94;35.54;100259.56;5065585;28;20067;-61
2022/03/01 09:43:39;;;;;;;15.00;8.02;;;;;;;10.28;33.56;100270.78;5074859;28;20075;-63
2022/03/01 09:46:24;;;;;;;13.13;7.05;;;;;;;8.92;35.45;100258.75;5074776;28;20049;-62
2022/03/01 09:49:11;;;;;;;13.82;7.15;;;;;;;9.85;33.91;100269.09;5075040;28;20392;-62
2022/03/01 09:51:56;;;;;;;11.57;6.63;;;;;;;10.09;33.98;100266.34;5074533;28;20071;-61
2022/03/01 09:54:43;;;;;;;12.75;7.60;;;;;;;6.60;38.78;100262.75;5073657;28;20060;-62
2022/03/01 09:57:28;;;;;;;17.33;8.43;;;;;;;5.28;42.63;100266.88;5073509;28;20047;-61
2022/03/01 10:00:14;;;;;;;11.73;7.60;;;;;;;6.38;41.45;100270.31;5050951;28;20067;-61
2022/03/01 10:03:00;;;;;;;14.60;7.82;;;;;;;6.23;40.50;100276.75;5073055;28;20529;-61
2022/03/01 10:05:46;;;;;;;12.25;7.88;;;;;;;5.87;41.12;100275.91;5073439;28;20063;-61
2022/03/01 10:08:32;;;;;;;15.98;8.20;;;;;;;7.03;40.39;100271.06;5074585;28;20079;-63
2022/03/01 10:11:18;;;;;;;15.27;8.48;;;;;;;8.52;37.04;100257.59;5074221;28;20060;-62
2022/03/01 10:14:05;;;;;;;14.77;7.80;;;;;;;7.50;38.51;100261.84;5073976;28;20056;-62
2022/03/01 10:16:50;;;;;;;15.98;8.68;;;;;;;8.35;37.01;100262.50;5073871;28;20056;-61
2022/03/01 10:19:36;;;;;;;18.05;8.07;;;;;;;9.10;35.54;100238.03;5073709;28;20503;-62
2022/03/01 10:22:22;;;;;;;15.82;7.85;;;;;;;8.97;35.96;100245.50;5073064;28;20059;-62
2022/03/01 10:25:08;;;;;;;18.05;9.60;;;;;;;6.71;40.37;100248.56;5073584;28;20404;-62
2022/03/01 10:27:55;;;;;;;20.23;9.02;;;;;;;7.17;40.30;100255.91;5073583;28;20063;-62
2022/03/01 10:30:41;;;;;;;16.30;9.68;;;;;;;9.60;36.39;100247.38;5073668;28;20072;-63
2022/03/01 10:33:27;;;;;;;16.70;9.88;;;;;;;8.45;37.78;100249.97;5066744;28;20502;-62
2022/03/01 10:36:12;;;;;;;16.80;9.43;;;;;;;8.33;37.78;100248.66;5073386;28;20052;-62
2022/03/01 10:39:08;;;;;;;18.83;9.15;;;;;;;8.20;37.88;100256.06;5073275;28;20075;-62
2022/03/01 10:41:54;;;;;;;14.75;8.73;;;;;;;8.12;38.24;100240.66;5073191;28;20049;-62
2022/03/01 10:44:40;;;;;;;13.77;7.97;;;;;;;10.82;33.50;100236.13;5079476;28;20490;-62
2022/03/01 10:47:26;;;;;;;16.63;8.20;;;;;;;10.85;31.75;100230.75;5072823;28;20060;-62
2022/03/01 10:50:11;;;;;;;13.80;7.63;;;;;;;11.34;32.53;100231.97;5073003;28;20057;-62
2022/03/01 10:52:57;;;;;;;12.20;8.18;;;;;;;11.26;31.58;100224.44;5073244;28;20530;-62
2022/03/01 10:55:43;;;;;;;18.23;8.02;;;;;;;10.10;33.46;100232.22;5072946;28;20411;-63
2022/03/01 10:58:29;;;;;;;14.82;7.55;;;;;;;9.98;33.25;100227.53;5072912;28;20071;-62
2022/03/01 11:01:16;;;;;;;14.90;8.23;;;;;;;9.52;33.37;100225.91;5072649;28;20060;-62
2022/03/01 11:04:03;;;;;;;16.42;7.88;;;;;;;9.81;33.05;100220.41;5072952;28;20075;-61
2022/03/01 11:06:49;;;;;;;15.05;7.25;;;;;;;9.64;33.99;100211.50;5072544;28;20048;-66
2022/03/01 11:09:35;;;;;;;12.63;7.05;;;;;;;9.17;34.17;100199.44;5083650;28;20506;-68
2022/03/01 11:12:22;;;;;;;13.38;7.30;;;;;;;8.77;34.79;100189.63;5048848;28;20068;-60
2022/03/01 11:15:31;;;;;;;12.35;6.43;;;;;;;9.21;34.38;100186.16;5052869;28;20048;-62
2022/03/01 11:18:38;;;;;;;11.70;6.40;;;;;;;9.58;33.24;100193.44;5077527;28;20066;-62
2022/03/01 11:21:25;;;;;;;15.90;7.43;;;;;;;9.46;33.16;100176.47;5093397;28;20173;-64
2022/03/01 11:24:14;;;;;;;13.43;7.20;;;;;;;10.93;31.92;100163.06;5055029;28;20068;-60
2022/03/01 11:27:06;;;;;;;11.73;6.35;;;;;;;10.63;31.13;100162.72;5059990;28;20108;-63
2022/03/01 11:30:05;;;;;;;12.63;6.63;;;;;;;9.94;31.96;100163.97;5065160;28;20052;-61
2022/03/01 11:32:55;;;;;;;9.57;6.10;;;;;;;8.74;33.89;100151.41;5062231;28;20052;-61
2022/03/01 11:35:53;;;;;;;11.35;6.28;;;;;;;9.98;36.22;100146.38;5055400;28;20052;-61
2022/03/01 11:38:42;;;;;;;10.30;6.47;;;;;;;9.75;32.68;100135.13;5053034;28;20043;-63
2022/03/01 11:41:28;;;;;;;11.77;5.72;;;;;;;10.75;32.18;100124.63;5057731;28;20071;-65
2022/03/01 11:44:22;;;;;;;15.68;6.28;;;;;;;10.91;32.07;100125.59;5047399;28;20063;-60
2022/03/01 11:47:21;;;;;;;12.98;6.57;;;;;;;9.40;32.26;100106.94;5058379;28;20044;-61
2022/03/01 11:50:13;;;;;;;10.65;5.75;;;;;;;8.30;34.98;100112.97;5054748;28;20435;-65
2022/03/01 11:53:06;;;;;;;12.18;6.57;;;;;;;8.23;35.52;100104.50;5057546;28;20118;-63
2022/03/01 11:55:56;;;;;;;11.45;6.55;;;;;;;8.19;34.81;100110.78;5059689;28;20055;-63
2022/03/01 11:58:49;;;;;;;11.60;6.25;;;;;;;9.09;33.85;100097.78;5040899;28;20055;-61
2022/03/01 12:01:36;;;;;;;16.13;6.93;;;;;;;8.41;34.12;100094.28;5070764;28;20055;-62
2022/03/01 12:04:26;;;;;;;14.63;7.18;;;;;;;9.00;33.70;100093.78;5068893;28;20411;-60
2022/03/01 12:07:17;;;;;;;13.38;7.25;;;;;;;9.40;33.39;100080.78;5072519;28;20404;-64
2022/03/01 12:10:06;;;;;;;12.85;7.03;;;;;;;8.50;34.47;100075.63;5072647;28;20064;-59
2022/03/01 12:12:56;;;;;;;13.35;6.70;;;;;;;8.65;33.88;100078.59;5078275;28;20055;-66
2022/03/01 12:15:53;;;;;;;14.13;6.47;;;;;;;9.21;33.42;100072.88;5049302;28;20063;-65
2022/03/01 12:18:42;;;;;;;11.70;5.75;;;;;;;10.15;31.91;100066.22;5063278;28;20047;-60
2022/03/01 12:21:29;;;;;;;9.70;4.93;;;;;;;10.22;32.31;100073.72;5068077;28;20045;-61
2022/03/01 12:24:16;;;;;;;13.27;7.18;;;;;;;8.98;32.19;100074.69;5063236;28;20055;-60
2022/03/01 12:27:03;;;;;;;10.65;5.47;;;;;;;8.60;33.66;100064.88;5072091;28;20051;-65
2022/03/01 12:29:53;;;;;;;11.57;6.13;;;;;;;8.70;34.77;100055.75;5056347;28;20052;-60
2022/03/01 12:32:39;;;;;;;10.13;5.97;;;;;;;10.48;31.17;100042.00;5052356;28;20048;-61
2022/03/01 12:35:29;;;;;;;10.20;5.35;;;;;;;10.42;30.33;100035.25;5052004;28;20048;-60
2022/03/01 12:38:17;;;;;;;11.70;6.28;;;;;;;10.20;35.37;100024.94;5053322;28;20045;-59
2022/03/01 12:41:09;;;;;;;11.88;6.25;;;;;;;9.54;31.17;100013.94;5055902;28;20041;-62
2022/03/01 12:43:57;;;;;;;9.60;5.55;;;;;;;9.77;31.31;100020.78;5058450;28;20135;-61
2022/03/01 12:46:44;;;;;;;13.70;6.35;;;;;;;10.41;30.52;100009.13;5057949;28;20056;-62
2022/03/01 12:49:34;;;;;;;11.25;6.10;;;;;;;10.83;30.00;100010.63;5052224;28;20060;-61
2022/03/01 12:52:21;;;;;;;12.98;6.53;;;;;;;10.74;30.34;99999.72;5040819;28;20448;-60
2022/03/01 12:55:07;;;;;;;11.43;6.47;;;;;;;9.80;31.48;99991.84;5054516;28;20076;-60
2022/03/01 12:57:55;;;;;;;13.65;7.22;;;;;;;10.67;30.42;99992.19;5055849;28;20075;-67